Time;durP1;ratioP1;P1;durP2;ratioP2;P2;SDS_P1;SDS_P2;PMS_P1;PMS_P2;Temp;Humidity;BMP_temperature;BMP_pressure;BME280_temperature;BME280_humidity;BME280_pressure;Samples;Min_cycle;Max_cycle;Signal;HPM_P1;HPM_P2
2022/03/15 00:00:56;;;;;;;6.57;4.45;;;;;;;-4.97;68.43;98292.84;5114035;28;20024;-66
2022/03/15 00:03:22;;;;;;;6.18;4.45;;;;;;;-5.02;68.69;98292.63;5114241;28;20019;-65
2022/03/15 00:05:48;;;;;;;8.75;4.68;;;;;;;-5.07;68.88;98294.91;5114418;28;20711;-66
2022/03/15 00:08:15;;;;;;;6.65;4.70;;;;;;;-5.09;69.11;98288.84;5113817;28;20027;-66
2022/03/15 00:10:41;;;;;;;5.32;3.88;;;;;;;-5.14;69.14;98291.97;5113977;28;20145;-67
2022/03/15 00:13:07;;;;;;;7.53;4.50;;;;;;;-5.17;69.55;98295.25;5113887;28;20024;-67
2022/03/15 00:15:35;;;;;;;8.52;4.50;;;;;;;-5.23;69.80;98293.25;5113417;28;20031;-67
2022/03/15 00:18:02;;;;;;;6.20;4.68;;;;;;;-5.16;69.73;98298.66;5113950;28;20057;-65
2022/03/15 00:20:27;;;;;;;8.90;4.55;;;;;;;-5.09;69.71;98291.41;5113449;28;20130;-67
2022/03/15 00:22:57;;;;;;;7.97;4.65;;;;;;;-5.05;69.22;98289.00;5113712;28;20107;-69
2022/03/15 00:25:23;;;;;;;6.85;4.72;;;;;;;-5.05;69.22;98284.78;5113808;28;20107;-66
2022/03/15 00:27:53;;;;;;;7.47;4.25;;;;;;;-5.04;69.36;98294.19;5113705;28;20028;-66
2022/03/15 00:30:21;;;;;;;5.97;4.20;;;;;;;-5.03;68.86;98288.28;5113707;28;20110;-66
2022/03/15 00:32:47;;;;;;;6.43;4.32;;;;;;;-5.03;68.82;98275.50;5113532;28;20078;-67
2022/03/15 00:35:25;;;;;;;9.63;7.07;;;;;;;-5.13;68.87;98286.03;5113540;28;20477;-66
2022/03/15 00:37:53;;;;;;;7.18;5.03;;;;;;;-5.22;69.16;98279.69;5113621;28;20055;-66
2022/03/15 00:40:21;;;;;;;7.53;5.20;;;;;;;-5.41;69.69;98274.41;5113540;28;20018;-66
2022/03/15 00:42:49;;;;;;;6.95;5.05;;;;;;;-5.46;70.04;98276.69;5113531;28;20358;-66
2022/03/15 00:45:16;;;;;;;12.65;6.30;;;;;;;-5.42;70.02;98272.66;5113372;28;20050;-66
2022/03/15 00:47:41;;;;;;;7.13;5.00;;;;;;;-5.40;70.08;98274.47;5113284;28;20063;-66
2022/03/15 00:50:07;;;;;;;9.02;5.85;;;;;;;-5.36;70.07;98271.28;5113483;28;20479;-66
2022/03/15 00:52:33;;;;;;;10.23;6.70;;;;;;;-5.34;69.71;98276.47;5113448;28;20031;-67
2022/03/15 00:54:58;;;;;;;9.50;5.72;;;;;;;-5.33;69.52;98268.03;5113364;28;20015;-67
2022/03/15 00:57:24;;;;;;;9.55;6.35;;;;;;;-5.39;69.77;98258.34;5113416;28;20020;-66
2022/03/15 00:59:50;;;;;;;12.32;7.15;;;;;;;-5.40;69.80;98255.72;5113290;28;20031;-66
2022/03/15 01:02:15;;;;;;;9.38;5.55;;;;;;;-5.53;70.32;98255.09;5113493;28;20028;-67
2022/03/15 01:04:41;;;;;;;8.30;4.35;;;;;;;-5.58;70.38;98252.31;5113411;28;20031;-70
2022/03/15 01:07:07;;;;;;;7.18;4.50;;;;;;;-5.56;70.21;98252.38;5113227;28;20039;-67
2022/03/15 01:09:32;;;;;;;7.97;4.75;;;;;;;-5.51;70.30;98247.53;5113169;28;20103;-67
2022/03/15 01:11:59;;;;;;;7.93;5.00;;;;;;;-5.49;70.19;98253.56;5113323;28;20034;-66
2022/03/15 01:14:27;;;;;;;7.40;4.63;;;;;;;-5.50;70.42;98250.16;5113365;28;20019;-67
2022/03/15 01:16:55;;;;;;;8.07;4.95;;;;;;;-5.61;70.85;98256.34;5113153;28;20035;-68
2022/03/15 01:19:22;;;;;;;10.07;5.22;;;;;;;-5.53;70.73;98247.44;5113254;28;20493;-67
2022/03/15 01:21:48;;;;;;;7.65;5.18;;;;;;;-5.58;70.42;98244.66;5112907;28;20485;-67
2022/03/15 01:24:13;;;;;;;7.07;4.43;;;;;;;-5.55;70.56;98240.47;5113058;28;20028;-67
2022/03/15 01:26:39;;;;;;;6.13;4.72;;;;;;;-5.61;70.57;98239.38;5114282;28;20027;-67
2022/03/15 01:29:05;;;;;;;6.57;4.32;;;;;;;-5.56;70.79;98234.53;5116967;28;20414;-67
2022/03/15 01:31:31;;;;;;;7.93;4.45;;;;;;;-5.47;70.50;98232.47;5117043;28;20016;-67
2022/03/15 01:33:56;;;;;;;7.55;4.97;;;;;;;-5.40;70.09;98232.75;5116895;28;20377;-67
2022/03/15 01:36:22;;;;;;;8.82;5.05;;;;;;;-5.42;69.73;98232.69;5116782;28;20028;-68
2022/03/15 01:38:50;;;;;;;6.75;4.10;;;;;;;-5.45;69.71;98229.97;5116825;28;20019;-67
2022/03/15 01:41:15;;;;;;;8.57;4.80;;;;;;;-5.48;69.66;98225.59;5116854;28;20103;-67
2022/03/15 01:43:41;;;;;;;7.13;4.88;;;;;;;-5.54;69.83;98219.31;5116830;28;20135;-67
2022/03/15 01:46:07;;;;;;;6.60;4.95;;;;;;;-5.48;69.59;98222.19;5116591;28;20016;-67
2022/03/15 01:48:35;;;;;;;8.02;4.93;;;;;;;-5.56;69.84;98220.88;5116516;27;20110;-67
2022/03/15 01:51:02;;;;;;;11.35;4.88;;;;;;;-5.68;70.31;98218.56;5116708;27;20059;-67
2022/03/15 01:53:28;;;;;;;6.85;4.60;;;;;;;-5.64;70.43;98216.25;5116621;28;20047;-69
2022/03/15 01:55:54;;;;;;;8.43;5.80;;;;;;;-5.60;70.30;98217.31;5116560;28;20111;-69
2022/03/15 01:58:21;;;;;;;11.27;7.20;;;;;;;-5.62;70.11;98219.78;5116438;28;20102;-66
2022/03/15 02:00:48;;;;;;;9.95;6.70;;;;;;;-5.60;70.19;98219.88;5116320;28;20024;-67
2022/03/15 02:03:13;;;;;;;6.78;4.68;;;;;;;-5.61;70.44;98220.63;5116393;28;20047;-67
2022/03/15 02:05:39;;;;;;;7.15;5.18;;;;;;;-5.77;70.29;98218.94;5116343;28;20065;-67
2022/03/15 02:08:10;;;;;;;12.65;5.78;;;;;;;-5.81;70.95;98211.94;5116274;28;20027;-67
2022/03/15 02:10:35;;;;;;;8.48;5.57;;;;;;;-5.94;71.29;98215.50;5116297;28;20059;-67
2022/03/15 02:13:01;;;;;;;7.57;5.65;;;;;;;-5.96;71.36;98215.44;5116324;27;20047;-67
2022/03/15 02:15:27;;;;;;;11.18;5.85;;;;;;;-5.97;71.25;98219.63;5116195;28;20027;-67
2022/03/15 02:17:52;;;;;;;6.72;5.22;;;;;;;-5.93;71.51;98219.81;5116148;28;20091;-67
2022/03/15 02:20:18;;;;;;;8.90;5.93;;;;;;;-5.96;71.22;98221.38;5115944;28;20036;-67
2022/03/15 02:22:43;;;;;;;7.20;4.82;;;;;;;-5.94;71.47;98229.13;5116080;28;20080;-66
2022/03/15 02:25:09;;;;;;;8.40;4.22;;;;;;;-6.05;71.63;98220.03;5115981;28;20084;-67
2022/03/15 02:27:34;;;;;;;9.45;5.15;;;;;;;-6.21;72.17;98229.38;5115979;28;20028;-66
2022/03/15 02:30:00;;;;;;;8.90;4.90;;;;;;;-6.16;72.27;98234.75;5115901;28;20362;-67
2022/03/15 02:32:26;;;;;;;12.00;5.10;;;;;;;-6.13;72.42;98240.91;5115852;28;20031;-67
2022/03/15 02:34:52;;;;;;;8.20;4.95;;;;;;;-6.07;72.21;98244.56;5115880;28;20023;-67
2022/03/15 02:37:18;;;;;;;9.60;5.05;;;;;;;-6.06;71.83;98241.25;5115860;28;20028;-67
2022/03/15 02:39:43;;;;;;;9.57;5.07;;;;;;;-6.09;71.94;98232.63;5115069;28;20473;-67
2022/03/15 02:42:09;;;;;;;7.38;4.78;;;;;;;-6.12;72.04;98236.66;5115820;28;20024;-67
2022/03/15 02:44:35;;;;;;;8.95;5.20;;;;;;;-6.12;72.16;98241.75;5115695;28;20027;-67
2022/03/15 02:47:00;;;;;;;7.13;4.32;;;;;;;-6.09;72.08;98239.38;5115339;28;20028;-67
2022/03/15 02:49:26;;;;;;;8.15;4.55;;;;;;;-6.15;72.20;98239.91;5115431;28;20153;-69
2022/03/15 02:51:52;;;;;;;8.20;4.47;;;;;;;-6.05;72.14;98243.84;5115421;28;20119;-67
2022/03/15 02:54:17;;;;;;;7.95;5.07;;;;;;;-6.03;71.81;98236.25;5115313;28;20022;-69
2022/03/15 02:56:43;;;;;;;8.15;4.68;;;;;;;-6.06;71.96;98242.09;5115365;28;20035;-67
2022/03/15 02:59:11;;;;;;;6.22;4.43;;;;;;;-6.14;71.99;98236.56;5115345;27;20024;-67
2022/03/15 03:01:37;;;;;;;9.02;5.38;;;;;;;-6.18;72.37;98232.09;5115222;28;20028;-69
2022/03/15 03:04:02;;;;;;;8.80;5.22;;;;;;;-6.23;72.37;98224.19;5115248;28;20020;-67
2022/03/15 03:06:28;;;;;;;7.78;4.53;;;;;;;-6.23;72.89;98226.75;5115172;28;20107;-67
2022/03/15 03:08:54;;;;;;;10.02;5.18;;;;;;;-6.22;73.00;98237.81;5115146;28;20024;-67
2022/03/15 03:11:19;;;;;;;9.00;5.20;;;;;;;-6.18;73.07;98242.28;5115162;28;20039;-67
2022/03/15 03:13:47;;;;;;;6.63;4.53;;;;;;;-6.12;73.01;98239.19;5115051;28;20060;-67
2022/03/15 03:16:14;;;;;;;8.27;5.45;;;;;;;-6.11;72.35;98243.53;5114949;27;20388;-67
2022/03/15 03:18:40;;;;;;;10.80;6.75;;;;;;;-6.14;72.43;98253.56;5115032;28;20028;-67
2022/03/15 03:21:06;;;;;;;10.73;5.82;;;;;;;-6.12;73.17;98252.84;5114627;28;20048;-67
2022/03/15 03:23:34;;;;;;;16.33;6.72;;;;;;;-6.11;73.27;98235.88;5114826;28;20482;-67
2022/03/15 03:26:02;;;;;;;10.05;6.35;;;;;;;-6.20;73.13;98241.34;5114869;28;20027;-67
2022/03/15 03:28:36;;;;;;;9.90;5.57;;;;;;;-6.15;72.89;98231.38;5114637;28;20034;-67
2022/03/15 03:31:03;;;;;;;9.02;5.25;;;;;;;-6.01;72.62;98250.84;5114786;28;20472;-67
2022/03/15 03:33:30;;;;;;;14.40;9.05;;;;;;;-6.07;72.53;98225.06;5114578;28;20027;-67
2022/03/15 03:35:56;;;;;;;11.98;8.45;;;;;;;-6.07;72.56;98242.00;5114461;28;20031;-67
2022/03/15 03:38:22;;;;;;;9.45;6.43;;;;;;;-6.06;72.49;98228.50;5114379;28;20055;-67
2022/03/15 03:40:47;;;;;;;7.22;5.40;;;;;;;-6.05;72.42;98217.50;5114513;28;20051;-67
2022/03/15 03:43:13;;;;;;;8.88;6.07;;;;;;;-6.08;72.54;98205.47;5114455;28;20016;-67
2022/03/15 03:45:39;;;;;;;7.80;5.57;;;;;;;-6.01;72.49;98201.53;5114568;27;20024;-67
2022/03/15 03:48:07;;;;;;;12.07;6.15;;;;;;;-6.05;72.27;98199.66;5114175;28;20465;-67
2022/03/15 03:50:34;;;;;;;12.63;7.07;;;;;;;-6.03;72.99;98196.34;5113542;28;20384;-67
2022/03/15 03:52:59;;;;;;;10.88;7.30;;;;;;;-5.93;73.80;98199.41;5114313;28;20024;-67
2022/03/15 03:55:25;;;;;;;9.77;5.93;;;;;;;-6.02;73.37;98198.09;5114275;28;20097;-70
2022/03/15 03:57:51;;;;;;;10.38;6.05;;;;;;;-6.01;72.79;98188.78;5112896;28;20029;-68
2022/03/15 04:00:16;;;;;;;11.20;6.18;;;;;;;-6.02;72.47;98190.44;5112840;28;20027;-67
2022/03/15 04:02:43;;;;;;;11.18;5.80;;;;;;;-6.03;72.50;98193.81;5114200;28;20031;-67
2022/03/15 04:05:09;;;;;;;11.80;6.25;;;;;;;-6.06;72.32;98192.81;5114003;28;20035;-67
2022/03/15 04:07:35;;;;;;;7.70;5.63;;;;;;;-6.01;72.27;98186.25;5113822;28;20094;-67
2022/03/15 04:10:06;;;;;;;11.10;5.82;;;;;;;-6.00;72.47;98193.97;5114049;28;20035;-67
2022/03/15 04:12:33;;;;;;;9.07;5.97;;;;;;;-5.94;72.89;98195.13;5113922;28;20027;-67
2022/03/15 04:14:59;;;;;;;10.48;5.50;;;;;;;-5.95;72.80;98199.31;5113916;28;20086;-67
2022/03/15 04:17:26;;;;;;;9.30;5.35;;;;;;;-5.91;72.82;98201.25;5113923;28;20023;-67
2022/03/15 04:19:53;;;;;;;9.77;6.43;;;;;;;-5.94;73.00;98200.22;5113716;28;20023;-68
2022/03/15 04:22:19;;;;;;;11.65;6.25;;;;;;;-5.92;72.83;98196.06;5113975;28;20023;-68
2022/03/15 04:24:45;;;;;;;9.43;5.38;;;;;;;-5.91;72.12;98200.34;5113714;28;20048;-67
2022/03/15 04:27:11;;;;;;;7.63;5.45;;;;;;;-5.91;72.39;98198.69;5113703;28;20108;-67
2022/03/15 04:29:37;;;;;;;12.63;6.53;;;;;;;-5.99;72.63;98192.31;5113817;28;20049;-67
2022/03/15 04:32:03;;;;;;;10.38;6.15;;;;;;;-6.06;72.61;98192.81;5113651;28;20027;-67
2022/03/15 04:34:30;;;;;;;11.23;6.95;;;;;;;-6.05;73.33;98175.03;5112403;28;20548;-67
2022/03/15 04:36:57;;;;;;;9.65;5.82;;;;;;;-5.97;72.50;98183.94;5113525;28;20492;-67
2022/03/15 04:39:22;;;;;;;11.32;5.80;;;;;;;-5.96;72.06;98188.22;5113524;28;20446;-67
2022/03/15 04:41:49;;;;;;;9.88;5.35;;;;;;;-5.97;72.12;98188.16;5113700;28;20112;-67
2022/03/15 04:44:15;;;;;;;9.52;5.85;;;;;;;-6.02;72.77;98197.25;5113720;28;20026;-67
2022/03/15 04:46:40;;;;;;;13.27;6.75;;;;;;;-6.09;72.76;98202.03;5113492;28;20027;-67
2022/03/15 04:49:06;;;;;;;13.82;6.22;;;;;;;-6.08;73.23;98195.28;5113366;28;20023;-67
2022/03/15 04:51:32;;;;;;;9.57;6.32;;;;;;;-6.05;73.54;98194.56;5113506;28;20513;-67
2022/03/15 04:53:57;;;;;;;12.50;7.13;;;;;;;-6.05;73.48;98192.88;5113415;28;20019;-67
2022/03/15 04:56:23;;;;;;;9.48;6.32;;;;;;;-6.09;73.88;98191.84;5113500;28;20016;-67
2022/03/15 04:58:49;;;;;;;9.70;6.43;;;;;;;-6.06;73.81;98191.13;5113497;28;20028;-67
2022/03/15 05:01:14;;;;;;;9.27;6.10;;;;;;;-5.97;73.75;98186.50;5114050;28;20088;-67
2022/03/15 05:03:40;;;;;;;10.48;6.85;;;;;;;-5.86;73.67;98188.75;5117539;28;20015;-67
2022/03/15 05:06:06;;;;;;;12.38;7.15;;;;;;;-5.86;73.57;98187.06;5117337;28;20023;-67
2022/03/15 05:08:32;;;;;;;12.98;7.07;;;;;;;-5.77;73.32;98186.69;5117307;28;20023;-67
2022/03/15 05:11:06;;;;;;;9.88;6.78;;;;;;;-5.67;73.34;98182.03;5117365;27;20093;-67
2022/03/15 05:13:46;;;;;;;11.40;6.68;;;;;;;-5.51;73.89;98186.31;5117347;28;20032;-67
2022/03/15 05:16:18;;;;;;;13.23;6.47;;;;;;;-4.46;73.43;98185.50;5117343;28;20030;-67
2022/03/15 05:18:53;;;;;;;9.18;5.32;;;;;;;-2.83;68.56;98185.84;5117291;28;20031;-69
2022/03/15 05:21:20;;;;;;;8.93;4.28;;;;;;;-1.22;62.47;98186.81;5117256;28;20048;-69
2022/03/15 05:23:47;;;;;;;9.57;4.80;;;;;;;0.29;57.68;98189.84;5117098;28;20024;-67
2022/03/15 05:26:14;;;;;;;8.30;4.40;;;;;;;1.50;53.29;98195.69;5117028;28;20080;-67
2022/03/15 05:28:40;;;;;;;6.78;4.10;;;;;;;2.63;50.69;98193.88;5117064;28;20047;-69
2022/03/15 05:31:06;;;;;;;8.95;4.88;;;;;;;3.63;48.16;98200.84;5117022;28;20058;-69
2022/03/15 05:33:31;;;;;;;10.23;4.75;;;;;;;4.64;45.70;98209.19;5117106;28;20038;-69
2022/03/15 05:35:57;;;;;;;7.50;4.50;;;;;;;5.54;43.23;98214.47;5116868;28;20024;-69
2022/03/15 05:38:23;;;;;;;7.57;4.40;;;;;;;6.53;41.00;98212.59;5116841;28;20019;-68
2022/03/15 05:40:49;;;;;;;7.13;4.45;;;;;;;7.49;39.65;98203.34;5116845;28;20477;-68
2022/03/15 05:43:15;;;;;;;6.35;4.60;;;;;;;8.45;38.15;98208.44;5116935;28;20022;-69
2022/03/15 05:45:41;;;;;;;5.88;4.55;;;;;;;9.35;36.44;98222.00;5116876;28;20016;-68
2022/03/15 05:48:06;;;;;;;9.35;4.70;;;;;;;10.25;35.66;98215.19;5116704;28;20039;-68
2022/03/15 05:50:32;;;;;;;9.02;4.50;;;;;;;10.82;33.95;98216.34;5116713;28;20075;-69
2022/03/15 05:53:02;;;;;;;4.82;4.32;;;;;;;11.40;32.61;98218.19;5116584;28;20030;-67
2022/03/15 05:55:28;;;;;;;7.95;5.97;;;;;;;12.15;32.12;98208.31;5116753;28;20123;-67
2022/03/15 05:57:53;;;;;;;8.05;4.55;;;;;;;12.67;31.12;98201.22;5116655;28;20035;-67
2022/03/15 06:00:20;;;;;;;6.22;4.47;;;;;;;13.14;30.44;98203.75;5116481;28;20474;-68
2022/03/15 06:02:46;;;;;;;6.55;4.30;;;;;;;13.63;29.41;98213.19;5116588;28;20073;-67
2022/03/15 06:05:12;;;;;;;6.47;4.93;;;;;;;13.86;29.62;98204.75;5116582;28;20032;-66
2022/03/15 06:07:50;;;;;;;9.50;4.53;;;;;;;14.25;28.83;98201.16;5116165;28;20028;-67
2022/03/15 06:10:17;;;;;;;5.70;4.72;;;;;;;14.64;27.69;98200.09;5116355;28;20051;-66
2022/03/15 06:12:43;;;;;;;7.20;5.35;;;;;;;14.66;27.13;98208.81;5115267;28;20465;-66
2022/03/15 06:15:10;;;;;;;7.13;5.22;;;;;;;14.94;26.41;98214.22;5115956;28;20076;-66
2022/03/15 06:17:56;;;;;;;7.45;6.03;;;;;;;15.01;26.38;98214.00;5116181;28;20020;-66
2022/03/15 06:20:23;;;;;;;10.95;5.65;;;;;;;15.16;26.75;98207.41;5115956;28;20071;-66
2022/03/15 06:22:49;;;;;;;8.93;6.75;;;;;;;14.77;27.01;98207.63;5116165;28;20030;-67
2022/03/15 06:25:16;;;;;;;8.10;6.75;;;;;;;14.92;26.44;98216.91;5114741;28;20385;-67
2022/03/15 06:27:43;;;;;;;10.18;7.05;;;;;;;15.32;25.72;98206.09;5115912;28;20519;-67
2022/03/15 06:30:10;;;;;;;58.38;34.65;;;;;;;15.96;24.54;98211.97;5115900;28;20024;-66
2022/03/15 06:32:36;;;;;;;22.17;11.23;;;;;;;16.57;23.36;98209.91;5115825;28;20354;-65
2022/03/15 06:35:06;;;;;;;42.30;25.52;;;;;;;17.07;22.55;98205.50;5115806;28;20103;-66
2022/03/15 06:37:31;;;;;;;20.20;13.15;;;;;;;17.53;22.04;98208.13;5115654;28;20031;-66
2022/03/15 06:39:57;;;;;;;21.58;14.95;;;;;;;18.14;20.52;98208.34;5115646;28;20031;-66
2022/03/15 06:42:23;;;;;;;22.08;14.63;;;;;;;18.47;21.51;98207.81;5115602;27;20407;-67
2022/03/15 06:44:49;;;;;;;18.58;12.65;;;;;;;18.66;21.50;98210.50;5115739;28;20026;-67
2022/03/15 06:47:15;;;;;;;13.68;9.75;;;;;;;18.47;21.24;98201.66;5115606;28;20030;-65
2022/03/15 06:49:41;;;;;;;8.65;5.72;;;;;;;18.55;21.08;98207.50;5115659;28;20020;-64
2022/03/15 06:52:09;;;;;;;7.97;5.10;;;;;;;18.16;20.83;98201.22;5115429;28;20111;-65
2022/03/15 06:54:35;;;;;;;8.18;5.55;;;;;;;17.69;21.82;98203.09;5115398;28;20085;-67
2022/03/15 06:57:00;;;;;;;7.13;5.75;;;;;;;17.28;22.91;98209.13;5115436;28;20026;-65
2022/03/15 06:59:26;;;;;;;11.82;6.68;;;;;;;17.37;22.60;98214.03;5115341;28;20015;-64
2022/03/15 07:01:52;;;;;;;11.27;6.97;;;;;;;17.62;22.23;98213.06;5115366;28;20074;-65
2022/03/15 07:04:18;;;;;;;7.03;6.00;;;;;;;17.44;22.89;98204.06;5115160;28;20106;-65
2022/03/15 07:06:44;;;;;;;11.27;7.15;;;;;;;17.16;22.64;98210.44;5115197;28;20080;-65
2022/03/15 07:09:10;;;;;;;5.70;4.68;;;;;;;16.89;21.43;98208.75;5115192;28;20020;-65
2022/03/15 07:11:36;;;;;;;6.55;5.38;;;;;;;16.51;22.51;98200.44;5115115;28;20350;-65
2022/03/15 07:14:02;;;;;;;7.22;5.13;;;;;;;15.38;23.53;98205.91;5115137;28;20023;-65
2022/03/15 07:16:28;;;;;;;7.10;5.53;;;;;;;14.06;25.50;98208.63;5115025;28;20058;-67
2022/03/15 07:18:55;;;;;;;6.25;5.13;;;;;;;13.22;27.26;98207.97;5114946;28;20444;-65
2022/03/15 07:21:20;;;;;;;5.80;5.20;;;;;;;12.26;28.65;98196.72;5114698;28;20060;-67
2022/03/15 07:23:46;;;;;;;7.93;6.15;;;;;;;11.56;29.71;98197.03;5114883;28;20097;-65
2022/03/15 07:26:12;;;;;;;9.77;6.78;;;;;;;11.68;30.28;98199.44;5114722;28;20031;-66
2022/03/15 07:28:38;;;;;;;10.27;6.38;;;;;;;11.97;29.24;98205.97;5114618;28;20022;-65
2022/03/15 07:31:04;;;;;;;8.40;5.72;;;;;;;11.82;30.77;98206.19;5114652;28;20119;-65
2022/03/15 07:33:32;;;;;;;6.80;5.15;;;;;;;11.84;30.67;98204.44;5113535;28;20058;-65
2022/03/15 07:36:02;;;;;;;6.40;4.78;;;;;;;11.53;31.16;98207.53;5114700;28;20020;-64
2022/03/15 07:38:28;;;;;;;8.05;5.70;;;;;;;11.19;30.88;98204.53;5114597;28;20092;-65
2022/03/15 07:40:57;;;;;;;7.07;5.47;;;;;;;10.92;31.92;98204.00;5114581;28;20470;-68
2022/03/15 07:43:23;;;;;;;8.20;5.50;;;;;;;10.68;31.79;98213.88;5114503;28;20020;-66
2022/03/15 07:45:49;;;;;;;10.27;5.22;;;;;;;10.61;31.83;98209.63;5114386;28;20026;-65
2022/03/15 07:48:16;;;;;;;7.53;5.70;;;;;;;10.66;32.14;98210.44;5114468;28;20123;-64
2022/03/15 07:50:41;;;;;;;10.38;5.57;;;;;;;10.90;31.34;98212.78;5114325;28;20097;-66
2022/03/15 07:53:07;;;;;;;9.40;5.15;;;;;;;10.84;32.35;98201.47;5114405;28;20429;-66
2022/03/15 07:55:34;;;;;;;9.10;5.65;;;;;;;11.20;31.54;98216.72;5114295;28;20053;-67
2022/03/15 07:58:00;;;;;;;7.00;4.72;;;;;;;11.24;31.53;98212.31;5114168;28;20035;-68
2022/03/15 08:00:25;;;;;;;6.40;4.85;;;;;;;11.01;29.92;98215.25;5114293;28;20019;-68
2022/03/15 08:02:52;;;;;;;5.68;4.30;;;;;;;10.54;30.92;98221.88;5114084;28;20047;-67
2022/03/15 08:05:18;;;;;;;8.18;4.50;;;;;;;10.60;31.06;98218.38;5114086;28;20034;-68
2022/03/15 08:07:44;;;;;;;7.85;5.13;;;;;;;10.87;30.50;98225.00;5114014;28;20415;-67
2022/03/15 08:10:10;;;;;;;5.50;4.97;;;;;;;10.80;30.96;98214.63;5114037;28;20026;-69
2022/03/15 08:12:37;;;;;;;5.63;4.38;;;;;;;10.77;31.37;98212.06;5114037;28;20034;-67
2022/03/15 08:15:04;;;;;;;7.10;4.90;;;;;;;11.02;30.01;98222.22;5113989;28;20017;-65
2022/03/15 08:17:30;;;;;;;5.63;4.70;;;;;;;11.21;29.70;98214.97;5113761;28;20031;-68
2022/03/15 08:19:57;;;;;;;6.72;4.63;;;;;;;11.33;30.27;98213.94;5113668;28;20035;-67
2022/03/15 08:22:23;;;;;;;6.95;4.18;;;;;;;11.24;31.26;98214.94;5114029;28;20036;-66
2022/03/15 08:24:49;;;;;;;7.35;4.65;;;;;;;11.73;30.98;98217.72;5113762;28;20417;-66
2022/03/15 08:27:14;;;;;;;6.32;4.82;;;;;;;12.24;28.50;98221.25;5113613;28;20051;-66
2022/03/15 08:29:40;;;;;;;8.65;4.75;;;;;;;12.73;28.48;98226.47;5113733;28;20027;-66
2022/03/15 08:32:06;;;;;;;5.45;4.40;;;;;;;13.07;27.35;98219.66;5113772;28;20026;-68
2022/03/15 08:34:33;;;;;;;5.95;4.40;;;;;;;13.20;27.03;98207.13;5113561;28;20031;-68
2022/03/15 08:36:58;;;;;;;7.13;4.63;;;;;;;13.06;27.42;98205.66;5112976;28;20027;-64
2022/03/15 08:39:24;;;;;;;6.93;5.28;;;;;;;13.18;28.18;98198.44;5113539;28;20385;-66
2022/03/15 08:41:51;;;;;;;6.88;4.47;;;;;;;13.10;27.62;98199.44;5113535;28;20469;-65
2022/03/15 08:44:20;;;;;;;6.15;4.68;;;;;;;12.69;28.81;98198.56;5113595;28;20027;-66
2022/03/15 08:46:47;;;;;;;7.43;4.88;;;;;;;12.88;29.27;98199.03;5113379;28;20042;-65
2022/03/15 08:49:13;;;;;;;6.78;4.50;;;;;;;13.39;27.15;98195.31;5113542;28;20077;-65
2022/03/15 08:51:39;;;;;;;5.85;4.80;;;;;;;13.46;27.47;98193.38;5113483;28;20492;-65
2022/03/15 08:54:05;;;;;;;5.93;4.32;;;;;;;13.49;27.71;98189.84;5113485;28;20027;-68
2022/03/15 08:56:31;;;;;;;6.45;4.75;;;;;;;13.67;27.84;98183.31;5113363;28;20073;-66
2022/03/15 08:58:57;;;;;;;6.90;4.82;;;;;;;13.95;25.72;98180.00;5113527;28;20027;-66
2022/03/15 09:01:22;;;;;;;6.28;4.30;;;;;;;13.95;25.41;98187.00;5113375;28;20042;-66
2022/03/15 09:03:48;;;;;;;5.53;4.50;;;;;;;13.66;25.88;98172.84;5113454;28;20030;-69
2022/03/15 09:06:14;;;;;;;8.10;4.50;;;;;;;13.30;26.82;98178.91;5113403;28;20023;-64
2022/03/15 09:08:39;;;;;;;5.07;4.03;;;;;;;12.75;27.40;98180.06;5112139;28;20036;-65
2022/03/15 09:11:05;;;;;;;8.63;4.25;;;;;;;12.43;26.30;98181.56;5113377;28;20481;-66
2022/03/15 09:13:31;;;;;;;6.28;4.32;;;;;;;11.97;27.28;98178.84;5113262;28;20062;-64
2022/03/15 09:15:57;;;;;;;6.47;4.80;;;;;;;11.86;28.30;98179.91;5113317;28;20081;-65
2022/03/15 09:18:26;;;;;;;8.68;4.20;;;;;;;11.93;28.46;98180.69;5113241;28;20555;-68
2022/03/15 09:20:52;;;;;;;8.10;4.10;;;;;;;12.10;26.96;98187.44;5113043;28;20122;-67
2022/03/15 09:23:18;;;;;;;5.53;4.18;;;;;;;12.34;26.57;98182.63;5113229;28;20617;-65
2022/03/15 09:25:43;;;;;;;7.13;4.25;;;;;;;12.41;26.79;98178.09;5113381;28;20377;-67
2022/03/15 09:28:10;;;;;;;5.93;4.05;;;;;;;12.55;26.33;98181.31;5113172;28;20030;-65
2022/03/15 09:30:37;;;;;;;4.97;3.97;;;;;;;12.36;26.22;98171.19;5113140;28;20024;-65
2022/03/15 09:33:03;;;;;;;6.47;3.72;;;;;;;12.34;26.50;98166.88;5113070;28;20418;-65
2022/03/15 09:35:28;;;;;;;5.80;4.22;;;;;;;12.47;27.42;98167.50;5113027;28;20024;-65
2022/03/15 09:37:54;;;;;;;5.70;3.75;;;;;;;12.40;27.20;98166.72;5113044;28;20102;-66
2022/03/15 09:40:22;;;;;;;5.85;4.18;;;;;;;12.69;27.31;98164.41;5113124;28;20012;-65
2022/03/15 09:42:50;;;;;;;6.18;4.03;;;;;;;13.00;26.07;98161.13;5112966;28;20095;-66
2022/03/15 09:45:21;;;;;;;5.72;4.07;;;;;;;13.17;23.35;98162.53;5113039;28;20020;-68
2022/03/15 09:47:54;;;;;;;5.25;3.90;;;;;;;13.06;24.01;98150.50;5114619;28;20465;-65
2022/03/15 09:50:20;;;;;;;5.13;4.15;;;;;;;12.58;27.29;98160.25;5116787;28;20114;-65
2022/03/15 09:52:47;;;;;;;4.90;3.55;;;;;;;12.45;25.14;98159.66;5116707;28;20373;-65
2022/03/15 09:55:14;;;;;;;4.47;3.67;;;;;;;12.61;26.46;98149.69;5116504;28;20020;-64
2022/03/15 09:57:40;;;;;;;6.03;4.07;;;;;;;12.73;26.81;98142.44;5116626;28;20023;-68
2022/03/15 10:00:07;;;;;;;8.82;4.10;;;;;;;12.55;26.13;98139.31;5117571;28;20024;-67
2022/03/15 10:02:33;;;;;;;10.02;5.78;;;;;;;12.65;27.58;98129.50;5116531;28;20106;-67
2022/03/15 10:04:58;;;;;;;8.02;4.97;;;;;;;12.82;25.78;98125.66;5116532;28;20051;-69
2022/03/15 10:07:24;;;;;;;5.88;4.18;;;;;;;12.68;25.39;98116.31;5116271;28;20034;-66
2022/03/15 10:09:51;;;;;;;6.80;4.75;;;;;;;12.41;26.00;98120.38;5116422;28;20023;-68
2022/03/15 10:12:18;;;;;;;8.77;5.05;;;;;;;12.38;27.47;98118.69;5116382;28;20035;-65
2022/03/15 10:14:45;;;;;;;6.15;4.22;;;;;;;12.57;26.18;98126.16;5116233;28;20027;-68
2022/03/15 10:17:14;;;;;;;5.53;3.78;;;;;;;12.69;27.14;98115.41;5116264;28;20039;-65
2022/03/15 10:19:53;;;;;;;9.88;5.75;;;;;;;12.63;27.31;98105.91;5116131;28;20031;-65
2022/03/15 10:22:23;;;;;;;8.90;5.10;;;;;;;12.53;28.71;98108.75;5116240;27;20114;-66
2022/03/15 10:24:50;;;;;;;5.65;4.38;;;;;;;12.29;26.69;98106.59;5116328;28;20553;-66
2022/03/15 10:27:16;;;;;;;7.38;3.63;;;;;;;11.81;27.17;98092.63;5115894;28;20031;-67
2022/03/15 10:29:43;;;;;;;5.40;3.85;;;;;;;11.69;26.46;98091.06;5116079;28;21248;-67
2022/03/15 10:32:09;;;;;;;4.78;3.80;;;;;;;11.69;26.21;98085.84;5115954;28;20366;-65
2022/03/15 10:34:36;;;;;;;5.68;4.10;;;;;;;11.92;27.25;98094.16;5115743;28;20027;-68
2022/03/15 10:37:03;;;;;;;5.13;3.90;;;;;;;11.92;28.42;98087.16;5115819;27;20035;-67
2022/03/15 10:39:28;;;;;;;6.03;3.83;;;;;;;11.83;25.10;98077.69;5115791;28;20030;-67
2022/03/15 10:41:58;;;;;;;5.57;3.70;;;;;;;11.73;26.31;98069.16;5115799;27;20020;-65
2022/03/15 10:44:34;;;;;;;5.28;4.10;;;;;;;11.84;26.08;98070.72;5115661;28;20377;-67
2022/03/15 10:47:15;;;;;;;4.95;3.75;;;;;;;11.99;28.29;98066.94;5115608;28;20413;-67
2022/03/15 10:49:48;;;;;;;5.22;4.15;;;;;;;12.24;26.80;98054.22;5115627;28;20030;-66
2022/03/15 10:52:41;;;;;;;5.57;3.92;;;;;;;12.17;26.10;98052.63;5115592;28;20050;-67
2022/03/15 10:55:15;;;;;;;7.07;4.03;;;;;;;12.28;25.43;98047.13;5115473;28;20408;-65
2022/03/15 10:57:48;;;;;;;8.00;4.00;;;;;;;12.16;25.59;98047.41;5115467;28;20044;-67
2022/03/15 11:00:15;;;;;;;5.15;3.50;;;;;;;12.37;26.84;98039.06;5114813;28;20385;-65
2022/03/15 11:02:45;;;;;;;4.80;3.90;;;;;;;12.37;26.83;98031.19;5115296;28;20369;-67
2022/03/15 11:05:11;;;;;;;4.43;3.60;;;;;;;12.40;24.79;98025.00;5115221;28;20019;-66
2022/03/15 11:07:41;;;;;;;5.28;3.83;;;;;;;12.12;25.74;98015.13;5115214;28;20031;-67
2022/03/15 11:10:14;;;;;;;4.43;3.60;;;;;;;12.16;26.87;98014.16;5115190;28;20443;-67
2022/03/15 11:13:02;;;;;;;5.90;3.75;;;;;;;12.24;26.28;98021.88;5115136;28;20027;-64
2022/03/15 11:15:30;;;;;;;4.00;3.15;;;;;;;12.24;26.17;98012.25;5115137;28;20027;-68
2022/03/15 11:18:04;;;;;;;4.72;3.63;;;;;;;12.52;26.75;98000.25;5115206;28;20028;-66
2022/03/15 11:20:37;;;;;;;4.97;3.50;;;;;;;12.64;24.57;98001.75;5114661;28;20552;-65
2022/03/15 11:23:05;;;;;;;5.18;3.50;;;;;;;12.75;24.87;97996.25;5114985;28;20040;-64
2022/03/15 11:25:39;;;;;;;6.28;3.50;;;;;;;12.76;25.34;97987.47;5115019;28;20392;-65
2022/03/15 11:28:08;;;;;;;4.85;3.78;;;;;;;12.89;25.12;97986.25;5114665;28;20019;-65
2022/03/15 11:30:34;;;;;;;4.90;3.85;;;;;;;12.72;23.62;97978.81;5114800;28;20065;-69